KMSP/MSP METAR and TAF weather

Enter ICAO airport designator
Station Type Date Time Source
KMSP METAR 2021/09/23 23:53 UTC NOAA

KMSP 232353Z 17005KT 10SM SCT250 21/03 A2993 RMK AO2 SLP136 T02110033 10233 20211 56012


Station Type Date Time Source
KMSP Decoded METAR 2021/09/23 23:53 UTC NOAA

MINNEAPOLIS-ST PAUL INTERNATIONAL , MN, United States (KMSP) 44-52N 93-13W 265M
Sep 23, 2021 - 07:53 PM EDT / 2021.09.23 2353 UTC
Wind: from the S (170 degrees) at 6 MPH (5 KT):0
Visibility: 10 mile(s):0
Sky conditions: partly cloudy
Temperature: 70.0 F (21.1 C)
Dew Point: 37.9 F (3.3 C)
Relative Humidity: 30%
Pressure (altimeter): 29.93 in. Hg (1013 hPa)
Pressure tendency: 0.04 inches (1.2 hPa) lower than three hours ago
ob: KMSP 232353Z 17005KT 10SM SCT250 21/03 A2993 RMK AO2 SLP136 T02110033 10233 20211 56012
cycle: 0

Station Type Date Time Source
KMSP TAF 2021/09/23 21:03 UTC NOAA

TAF
AMD KMSP 232100Z 2321/2424 22006KT P6SM FEW250
FM240000 15004KT P6SM SKC
FM241100 VRB03KT P6SM BKN150
FM241600 34011KT P6SM BKN080 PROB30 2416/2419 P6SM -SHRA BKN050
FM242100 34012KT P6SM SCT150

Example: see airport list